Time;durP1;ratioP1;P1;durP2;ratioP2;P2;SDS_P1;SDS_P2;PMS_P1;PMS_P2;Temp;Humidity;BMP_temperature;BMP_pressure;BME280_temperature;BME280_humidity;BME280_pressure;Samples;Min_cycle;Max_cycle;Signal;HPM_P1;HPM_P2
2021/01/17 00:01:53;;;;;;;;;;;;;;;16.10;55.50;101771.22;4934061;29;816;-73
2021/01/17 00:04:19;;;;;;;;;;;;;;;16.09;55.40;101769.47;4918037;29;1258;-72
2021/01/17 00:06:46;;;;;;;;;;;;;;;16.09;55.60;101771.25;4935795;29;776;-73
2021/01/17 00:09:12;;;;;;;;;;;;;;;16.10;55.65;101767.72;4934201;29;1241;-72
2021/01/17 00:11:39;;;;;;;;;;;;;;;16.09;55.85;101763.34;4902111;29;1393;-72
2021/01/17 00:14:05;;;;;;;;;;;;;;;16.08;55.97;101756.41;4934826;29;1210;-71
2021/01/17 00:16:31;;;;;;;;;;;;;;;16.07;55.87;101749.41;4935201;29;1911;-72
2021/01/17 00:18:58;;;;;;;;;;;;;;;16.07;55.90;101739.75;4917538;29;1302;-72
2021/01/17 00:21:24;;;;;;;;;;;;;;;16.06;55.67;101752.94;4917346;29;1333;-73
2021/01/17 00:23:50;;;;;;;;;;;;;;;16.05;55.81;101741.56;4934770;29;1227;-73
2021/01/17 00:26:17;;;;;;;;;;;;;;;16.07;55.99;101749.41;4934767;29;1087;-72
2021/01/17 00:28:44;;;;;;;;;;;;;;;16.04;55.79;101745.09;4936886;29;1343;-72
2021/01/17 00:31:10;;;;;;;;;;;;;;;16.04;55.86;101739.84;4953764;29;795;-72
2021/01/17 00:33:37;;;;;;;;;;;;;;;16.03;55.67;101738.13;4935006;29;1262;-73
2021/01/17 00:36:03;;;;;;;;;;;;;;;16.00;56.07;101732.09;4934744;29;1907;-71
2021/01/17 00:38:29;;;;;;;;;;;;;;;16.01;56.13;101725.94;4917429;29;1413;-70
2021/01/17 00:40:56;;;;;;;;;;;;;;;16.05;56.23;101724.94;4934374;29;1189;-72
2021/01/17 00:43:22;;;;;;;;;;;;;;;15.98;55.88;101724.25;4934593;29;1374;-72
2021/01/17 00:45:48;;;;;;;;;;;;;;;15.98;56.26;101728.66;4934742;29;868;-73
2021/01/17 00:48:15;;;;;;;;;;;;;;;15.99;55.99;101725.13;4934404;29;1218;-71
2021/01/17 00:50:41;;;;;;;;;;;;;;;15.97;56.02;101711.16;4934479;29;909;-73
2021/01/17 00:53:08;;;;;;;;;;;;;;;15.99;55.95;101704.09;4933607;29;1218;-73
2021/01/17 00:55:34;;;;;;;;;;;;;;;15.98;55.75;101705.88;4917628;29;1170;-72
2021/01/17 00:58:00;;;;;;;;;;;;;;;15.99;55.86;101709.38;4934452;29;1960;-72
2021/01/17 01:00:28;;;;;;;;;;;;;;;15.96;55.91;101705.03;4916565;29;1303;-71
2021/01/17 01:02:57;;;;;;;;;;;;;;;15.95;55.99;101705.97;4934490;29;1250;-73
2021/01/17 01:05:24;;;;;;;;;;;;;;;15.95;55.82;101695.44;4916804;29;1184;-71
2021/01/17 01:07:51;;;;;;;;;;;;;;;15.96;55.99;101693.69;4933968;29;1262;-71
2021/01/17 01:10:18;;;;;;;;;;;;;;;15.95;56.28;101699.84;4916592;29;1223;-72
2021/01/17 01:12:44;;;;;;;;;;;;;;;15.95;56.16;101684.94;4933695;29;1237;-72
2021/01/17 01:15:16;;;;;;;;;;;;;;;15.92;56.23;101692.91;4917064;29;1155;-74
2021/01/17 01:17:42;;;;;;;;;;;;;;;15.94;56.26;101692.84;4916291;29;1911;-73
2021/01/17 01:20:10;;;;;;;;;;;;;;;15.92;56.07;101687.66;4933926;29;1138;-72
2021/01/17 01:22:40;;;;;;;;;;;;;;;15.92;56.02;101686.78;4933562;29;1238;-70
2021/01/17 01:25:07;;;;;;;;;;;;;;;15.94;56.02;101679.72;4932164;29;1148;-71
2021/01/17 01:27:33;;;;;;;;;;;;;;;15.92;56.28;101676.28;4934237;29;1342;-71
2021/01/17 01:29:59;;;;;;;;;;;;;;;15.91;56.26;101666.66;4916816;29;1315;-72
2021/01/17 01:32:25;;;;;;;;;;;;;;;15.93;56.46;101657.00;4933958;29;1237;-71
2021/01/17 01:34:52;;;;;;;;;;;;;;;15.91;56.43;101658.78;4916919;29;1445;-71
2021/01/17 01:37:18;;;;;;;;;;;;;;;15.93;56.30;101673.59;4933588;29;1910;-71
2021/01/17 01:39:44;;;;;;;;;;;;;;;15.91;56.39;101659.66;4916392;29;1266;-71
2021/01/17 01:42:11;;;;;;;;;;;;;;;15.90;56.47;101654.47;4916681;29;1238;-71
2021/01/17 01:44:37;;;;;;;;;;;;;;;15.88;56.34;101651.00;4933122;29;1077;-71
2021/01/17 01:47:03;;;;;;;;;;;;;;;15.85;56.33;101647.56;4933561;29;716;-70
2021/01/17 01:49:30;;;;;;;;;;;;;;;15.88;56.41;101638.72;4933211;29;1262;-73
2021/01/17 01:51:59;;;;;;;;;;;;;;;15.89;56.47;101647.47;4933352;29;827;-72
2021/01/17 01:54:26;;;;;;;;;;;;;;;15.87;56.25;101646.69;4916400;29;1301;-73
2021/01/17 01:56:58;;;;;;;;;;;;;;;15.87;56.15;101647.50;4933097;29;1903;-73
2021/01/17 01:59:48;;;;;;;;;;;;;;;15.86;56.49;101635.31;4908928;29;1176;-68
2021/01/17 02:02:52;;;;;;;;;;;;;;;15.83;56.53;101635.41;4836837;29;1292;-71
2021/01/17 02:05:24;;;;;;;;;;;;;;;15.84;56.38;101635.34;4836962;29;1062;-71
2021/01/17 02:08:13;;;;;;;;;;;;;;;15.83;56.48;101625.75;4835730;29;1337;-70
2021/01/17 02:10:49;;;;;;;;;;;;;;;15.85;56.28;101623.94;4836570;29;927;-70
2021/01/17 02:13:31;;;;;;;;;;;;;;;15.84;56.48;101621.34;4836676;29;1357;-70
2021/01/17 02:16:03;;;;;;;;;;;;;;;15.82;56.42;101615.28;4928351;29;1803;-71
2021/01/17 02:18:33;;;;;;;;;;;;;;;15.81;56.38;101621.41;4932772;29;1993;-72
2021/01/17 02:21:01;;;;;;;;;;;;;;;15.81;56.76;101617.03;4933026;29;1051;-69
2021/01/17 02:23:40;;;;;;;;;;;;;;;15.80;56.58;101620.59;4914677;29;1411;-70
2021/01/17 02:26:08;;;;;;;;;;;;;;;15.80;56.63;101610.09;4915557;29;1325;-70
2021/01/17 02:28:35;;;;;;;;;;;;;;;15.81;56.74;101611.78;4932756;29;1332;-71
2021/01/17 02:31:02;;;;;;;;;;;;;;;15.78;56.78;101601.38;4933208;29;1235;-72
2021/01/17 02:33:30;;;;;;;;;;;;;;;15.80;56.64;101601.34;4932489;29;1251;-72
2021/01/17 02:36:04;;;;;;;;;;;;;;;15.81;56.65;101598.66;4916387;29;1192;-72
2021/01/17 02:38:46;;;;;;;;;;;;;;;15.76;56.74;101592.69;4915840;29;1993;-70
2021/01/17 02:41:38;;;;;;;;;;;;;;;15.77;56.44;101583.91;4932547;29;1013;-73
2021/01/17 02:44:05;;;;;;;;;;;;;;;15.78;56.51;101585.59;4930814;29;1286;-71
2021/01/17 02:46:31;;;;;;;;;;;;;;;15.78;56.62;101584.75;4932448;29;780;-71
2021/01/17 02:48:58;;;;;;;;;;;;;;;15.76;56.53;101576.06;4932628;29;1210;-72
2021/01/17 02:51:27;;;;;;;;;;;;;;;15.77;56.46;101565.53;4931983;29;1090;-71
2021/01/17 02:53:56;;;;;;;;;;;;;;;15.76;56.57;101566.41;4931956;29;1234;-71
2021/01/17 02:56:24;;;;;;;;;;;;;;;15.75;56.56;101566.44;4932293;29;1968;-70
2021/01/17 02:58:53;;;;;;;;;;;;;;;15.72;56.54;101561.28;4914967;29;1336;-71
2021/01/17 03:01:26;;;;;;;;;;;;;;;15.75;56.62;101562.06;4931535;29;912;-71
2021/01/17 03:04:09;;;;;;;;;;;;;;;15.71;56.53;101555.22;4914684;29;1293;-69
2021/01/17 03:06:50;;;;;;;;;;;;;;;15.74;56.54;101563.00;4932141;29;1065;-72
2021/01/17 03:09:24;;;;;;;;;;;;;;;15.72;56.49;101562.16;4929936;29;1289;-73
2021/01/17 03:11:51;;;;;;;;;;;;;;;15.72;56.58;101553.41;4899081;29;1207;-72
2021/01/17 03:14:18;;;;;;;;;;;;;;;15.71;56.62;101556.97;4964046;23;1700;-70
2021/01/17 03:16:44;;;;;;;;;;;;;;;15.72;56.70;101542.91;4951185;28;1934;-71
2021/01/17 03:19:29;;;;;;;;;;;;;;;15.70;56.74;101540.34;4949627;29;1338;-72
2021/01/17 03:22:20;;;;;;;;;;;;;;;15.70;56.64;101542.97;4944850;29;1327;-71
2021/01/17 03:24:49;;;;;;;;;;;;;;;15.69;56.55;101537.75;4950843;29;854;-72
2021/01/17 03:27:15;;;;;;;;;;;;;;;15.61;56.69;101510.88;4951208;28;1376;-71
2021/01/17 03:29:42;;;;;;;;;;;;;;;15.69;56.66;101530.72;4951144;29;1093;-70
2021/01/17 03:32:08;;;;;;;;;;;;;;;15.68;56.59;101536.91;4951193;29;1301;-71
2021/01/17 03:34:35;;;;;;;;;;;;;;;15.69;56.66;101541.25;4933942;29;839;-72
2021/01/17 03:37:03;;;;;;;;;;;;;;;15.68;56.64;101533.44;4933612;29;1969;-71
2021/01/17 03:39:33;;;;;;;;;;;;;;;15.67;56.50;101523.81;4950784;29;1234;-72
2021/01/17 03:41:59;;;;;;;;;;;;;;;15.68;56.91;101520.28;4950803;29;1029;-71
2021/01/17 03:44:30;;;;;;;;;;;;;;;15.69;56.80;101527.25;4950901;29;1269;-72
2021/01/17 03:46:56;;;;;;;;;;;;;;;15.66;56.67;101525.56;4933881;29;930;-73
2021/01/17 03:49:27;;;;;;;;;;;;;;;15.65;56.58;101518.63;4933906;29;1273;-70
2021/01/17 03:51:53;;;;;;;;;;;;;;;15.65;56.56;101516.00;4951086;29;1091;-71
2021/01/17 03:54:20;;;;;;;;;;;;;;;15.63;56.55;101520.41;4933644;29;1309;-70
2021/01/17 03:56:46;;;;;;;;;;;;;;;15.65;56.33;101521.25;4950541;29;1903;-72
2021/01/17 03:59:16;;;;;;;;;;;;;;;15.64;56.26;101522.16;4950443;28;1284;-70
2021/01/17 04:01:42;;;;;;;;;;;;;;;15.63;56.48;101517.78;4950411;28;1061;-70
2021/01/17 04:04:12;;;;;;;;;;;;;;;15.63;56.52;101523.06;4950540;28;1170;-69
2021/01/17 04:06:38;;;;;;;;;;;;;;;15.62;56.44;101523.97;4949134;29;1253;-70
2021/01/17 04:09:05;;;;;;;;;;;;;;;15.62;56.43;101525.75;4933220;29;1331;-69
2021/01/17 04:11:32;;;;;;;;;;;;;;;15.60;56.08;101514.41;4950400;28;823;-70
2021/01/17 04:13:58;;;;;;;;;;;;;;;15.61;56.58;101508.25;4933160;29;1544;-68
2021/01/17 04:16:24;;;;;;;;;;;;;;;15.61;56.42;101498.63;4950303;29;1910;-70
2021/01/17 04:18:50;;;;;;;;;;;;;;;15.61;56.53;101498.63;4932921;29;1295;-70
2021/01/17 04:21:17;;;;;;;;;;;;;;;15.58;56.50;101506.59;4933239;29;1281;-71
2021/01/17 04:23:43;;;;;;;;;;;;;;;15.59;56.44;101512.72;4948294;28;1281;-70
2021/01/17 04:26:10;;;;;;;;;;;;;;;15.60;56.27;101496.88;4950128;28;1017;-70
2021/01/17 04:28:36;;;;;;;;;;;;;;;15.58;56.45;101487.34;4950775;29;1273;-69
2021/01/17 04:31:03;;;;;;;;;;;;;;;15.58;56.45;101487.34;4950342;29;760;-71
2021/01/17 04:33:29;;;;;;;;;;;;;;;15.60;56.43;101486.38;4950775;29;1283;-71
2021/01/17 04:35:56;;;;;;;;;;;;;;;15.60;56.43;101496.88;4950278;29;1211;-71
2021/01/17 04:38:22;;;;;;;;;;;;;;;15.59;56.56;101489.94;4933376;29;1918;-71
2021/01/17 04:40:48;;;;;;;;;;;;;;;15.58;56.36;101493.47;4950812;29;744;-70
2021/01/17 04:43:29;;;;;;;;;;;;;;;15.57;56.34;101472.47;4933113;29;1372;-70
2021/01/17 04:45:59;;;;;;;;;;;;;;;15.55;56.63;101476.94;4950849;28;815;-70
2021/01/17 04:48:27;;;;;;;;;;;;;;;15.57;56.58;101473.34;4936255;29;1456;-70
2021/01/17 04:51:04;;;;;;;;;;;;;;;15.58;56.72;101474.22;4954120;29;716;-72
2021/01/17 04:53:32;;;;;;;;;;;;;;;15.55;56.49;101487.44;4953748;29;1274;-72
2021/01/17 04:56:20;;;;;;;;;;;;;;;15.56;56.63;101466.41;4936478;29;842;-72
2021/01/17 04:58:57;;;;;;;;;;;;;;;15.54;56.41;101470.81;4953997;29;1907;-72
2021/01/17 05:01:36;;;;;;;;;;;;;;;15.57;56.66;101467.22;4953546;29;806;-71
2021/01/17 05:04:21;;;;;;;;;;;;;;;15.54;56.64;101454.19;4936274;29;1352;-71
2021/01/17 05:06:54;;;;;;;;;;;;;;;15.55;56.62;101461.19;4953470;28;1092;-72
2021/01/17 05:09:21;;;;;;;;;;;;;;;15.54;56.43;101447.19;4953168;29;1296;-72
2021/01/17 05:11:50;;;;;;;;;;;;;;;15.53;56.69;101448.13;4935860;29;1133;-72
2021/01/17 05:14:34;;;;;;;;;;;;;;;15.54;56.37;101464.69;4936129;29;1557;-73
2021/01/17 05:17:00;;;;;;;;;;;;;;;15.53;56.47;101478.75;4953117;29;1910;-72
2021/01/17 05:19:27;;;;;;;;;;;;;;;15.50;56.45;101489.38;4953187;28;1229;-71
2021/01/17 05:21:56;;;;;;;;;;;;;;;15.51;56.59;101488.44;4953146;29;1064;-71
2021/01/17 05:24:22;;;;;;;;;;;;;;;15.52;56.84;101488.41;4952991;29;1206;-71
2021/01/17 05:26:51;;;;;;;;;;;;;;;15.53;56.93;101479.63;4953072;28;1155;-71
2021/01/17 05:29:18;;;;;;;;;;;;;;;15.50;56.72;101482.34;4952933;28;1207;-71
2021/01/17 05:31:48;;;;;;;;;;;;;;;15.49;56.63;101477.13;4935715;29;1050;-71
2021/01/17 05:34:16;;;;;;;;;;;;;;;15.51;56.50;101470.91;4935532;29;1253;-70
2021/01/17 05:36:42;;;;;;;;;;;;;;;15.51;56.49;101476.16;4952662;29;1910;-71
2021/01/17 05:39:08;;;;;;;;;;;;;;;15.50;56.43;101474.47;4952589;29;1174;-71
2021/01/17 05:41:35;;;;;;;;;;;;;;;15.50;56.80;101471.84;4935546;29;1422;-71
2021/01/17 05:44:01;;;;;;;;;;;;;;;15.49;56.67;101472.75;4953206;29;1252;-71
2021/01/17 05:46:27;;;;;;;;;;;;;;;15.47;56.57;101469.28;4935897;29;721;-73
2021/01/17 05:49:10;;;;;;;;;;;;;;;15.47;56.40;101474.53;4952573;28;1293;-72
2021/01/17 05:51:37;;;;;;;;;;;;;;;15.47;56.28;101479.78;4951184;29;1384;-72
2021/01/17 05:54:07;;;;;;;;;;;;;;;15.45;56.12;101484.22;4952954;29;1296;-71
2021/01/17 05:56:36;;;;;;;;;;;;;;;15.46;56.48;101472.81;4919511;29;1910;-72
2021/01/17 05:59:05;;;;;;;;;;;;;;;15.45;56.44;101473.72;4951715;28;1329;-72
2021/01/17 06:01:34;;;;;;;;;;;;;;;15.45;56.33;101460.56;4952273;28;827;-72
2021/01/17 06:04:12;;;;;;;;;;;;;;;15.44;56.37;101464.09;4935068;29;1345;-72
2021/01/17 06:06:42;;;;;;;;;;;;;;;15.44;56.41;101469.34;4934717;29;1624;-72
2021/01/17 06:09:10;;;;;;;;;;;;;;;15.44;56.19;101468.53;4951790;28;1469;-72
2021/01/17 06:11:38;;;;;;;;;;;;;;;15.41;56.33;101469.44;4937353;28;1206;-72
2021/01/17 06:14:04;;;;;;;;;;;;;;;15.45;56.29;101460.56;4927915;29;1438;-71
2021/01/17 06:16:38;;;;;;;;;;;;;;;15.42;56.50;101468.56;4952198;28;795;-72
2021/01/17 06:19:09;;;;;;;;;;;;;;;15.43;56.12;101477.28;4966063;28;1262;-73
2021/01/17 06:21:36;;;;;;;;;;;;;;;15.43;56.18;101472.91;4971439;28;1093;-73
2021/01/17 06:24:05;;;;;;;;;;;;;;;15.43;56.43;101466.78;4954127;28;1437;-72
2021/01/17 06:26:32;;;;;;;;;;;;;;;15.42;56.43;101471.19;4957171;28;815;-71
2021/01/17 06:28:59;;;;;;;;;;;;;;;15.42;56.55;101465.06;4934454;29;1277;-71
2021/01/17 06:31:27;;;;;;;;;;;;;;;15.42;56.57;101455.44;4934553;29;902;-71
2021/01/17 06:34:02;;;;;;;;;;;;;;;15.40;56.55;101452.00;4958776;28;1340;-71
2021/01/17 06:36:29;;;;;;;;;;;;;;;15.41;56.63;101463.38;4918877;29;1459;-71
2021/01/17 06:38:55;;;;;;;;;;;;;;;15.41;56.55;101473.88;4951968;28;1980;-71
2021/01/17 06:41:37;;;;;;;;;;;;;;;15.42;56.71;101501.81;4934335;29;1210;-72
2021/01/17 06:44:08;;;;;;;;;;;;;;;15.38;56.40;101497.59;4952286;29;1348;-71
2021/01/17 06:46:38;;;;;;;;;;;;;;;15.39;56.78;101491.41;4951888;29;836;-72
2021/01/17 06:49:34;;;;;;;;;;;;;;;15.39;56.53;101496.66;4934510;29;1317;-71
2021/01/17 06:52:32;;;;;;;;;;;;;;;15.38;56.83;101490.53;4867367;28;1043;-73
2021/01/17 06:56:27;;;;;;;;;;;;;;;15.39;56.97;101496.66;4913466;29;1649;-73
2021/01/17 07:10:39;;;;;;;;;;;;;;;15.36;56.44;101476.63;4932612;29;1011;-74
2021/01/17 07:16:33;;;;;;;;;;;;;;;15.36;56.43;101504.63;4932803;29;1247;-75
2021/01/17 07:23:00;;;;;;;;;;;;;;;15.42;57.89;101512.31;4910411;29;1343;-71
2021/01/17 07:25:42;;;;;;;;;;;;;;;15.39;56.57;101500.16;4910044;29;1120;-70
2021/01/17 07:31:35;;;;;;;;;;;;;;;15.39;57.02;101510.66;4897533;29;1163;-70
2021/01/17 07:34:32;;;;;;;;;;;;;;;15.40;57.18;101522.88;4920347;29;1298;-72
2021/01/17 07:37:23;;;;;;;;;;;;;;;15.41;57.11;101527.22;4930071;29;1926;-72
2021/01/17 07:40:51;;;;;;;;;;;;;;;15.41;57.43;101521.13;4928701;29;2293;-71
2021/01/17 07:43:22;;;;;;;;;;;;;;;15.36;57.47;101509.88;4929346;29;1332;-69
2021/01/17 07:46:00;;;;;;;;;;;;;;;15.39;57.48;101520.28;4928998;29;1131;-69
2021/01/17 07:49:20;;;;;;;;;;;;;;;;;;;;;
2021/01/17 07:52:34;;;;;;;;;;;;;;;15.41;57.38;101519.34;4860075;29;1259;-68
2021/01/17 07:59:28;;;;;;;;;;;;;;;15.37;57.38;101535.25;5048819;23;1973;-73
2021/01/17 08:02:50;;;;;;;;;;;;;;;15.36;57.53;101528.25;4900018;29;1638;-70
2021/01/17 08:05:36;;;;;;;;;;;;;;;15.36;57.64;101531.75;4931292;29;1768;-69
2021/01/17 08:08:20;;;;;;;;;;;;;;;15.43;57.63;101530.66;4913951;29;1647;-72
2021/01/17 08:11:38;;;;;;;;;;;;;;;15.39;58.21;101536.91;4914064;29;1246;-74
2021/01/17 08:14:29;;;;;;;;;;;;;;;15.42;57.91;101513.19;4947853;23;1827;-73
2021/01/17 08:17:43;;;;;;;;;;;;;;;15.51;56.88;101512.94;4909228;29;1989;-73
2021/01/17 08:20:28;;;;;;;;;;;;;;;15.57;56.89;101512.75;4908383;29;1108;-71
2021/01/17 08:23:16;;;;;;;;;;;;;;;15.58;56.68;101513.59;4953637;29;1288;-73
2021/01/17 08:25:46;;;;;;;;;;;;;;;15.64;56.75;101523.91;4936462;29;1200;-73
2021/01/17 08:28:31;;;;;;;;;;;;;;;15.68;56.77;101525.53;4954003;28;1320;-70
2021/01/17 08:45:09;;;;;;;;;;;;;;;16.07;58.25;101533.88;4976774;23;1945;-76
2021/01/17 08:48:28;;;;;;;;;;;;;;;16.02;57.12;101547.16;4887084;29;1234;-72
2021/01/17 08:51:14;;;;;;;;;;;;;;;16.14;58.16;101557.28;4891175;29;1593;-73
2021/01/17 08:53:46;;;;;;;;;;;;;;;16.19;57.70;101554.50;4913787;29;1425;-73
2021/01/17 08:56:18;;;;;;;;;;;;;;;15.97;57.18;101542.97;4893218;29;933;-74
2021/01/17 08:58:59;;;;;;;;;;;;;;;15.96;57.29;101562.31;4897994;29;1991;-73
2021/01/17 09:01:26;;;;;;;;;;;;;;;15.95;57.38;101576.34;4904132;29;1261;-70
2021/01/17 09:03:54;;;;;;;;;;;;;;;15.94;57.51;101571.97;4912456;29;1258;-70
2021/01/17 09:06:23;;;;;;;;;;;;;;;15.95;57.59;101573.72;4912508;29;901;-73
2021/01/17 09:08:52;;;;;;;;;;;;;;;15.95;57.55;101584.22;4912336;29;1242;-74
2021/01/17 09:11:29;;;;;;;;;;;;;;;15.95;57.59;101594.72;4909089;29;1589;-72
2021/01/17 09:14:07;;;;;;;;;;;;;;;15.97;57.74;101604.28;4886079;29;1289;-72
2021/01/17 09:16:35;;;;;;;;;;;;;;;15.97;57.50;101592.91;4893531;29;852;-75
2021/01/17 09:19:07;;;;;;;;;;;;;;;16.19;58.56;101586.06;4893448;29;1984;-69
2021/01/17 09:21:35;;;;;;;;;;;;;;;16.30;57.81;101589.16;4893553;29;870;-73
2021/01/17 09:24:14;;;;;;;;;;;;;;;16.20;57.40;101587.78;4877656;29;1250;-69
2021/01/17 09:26:45;;;;;;;;;;;;;;;16.19;57.04;101586.06;4935456;29;1562;-70
2021/01/17 09:29:25;;;;;;;;;;;;;;;16.42;57.92;101579.09;4955336;28;1289;-69
2021/01/17 09:31:53;;;;;;;;;;;;;;;16.26;57.39;101584.94;4972366;28;981;-69
2021/01/17 09:34:27;;;;;;;;;;;;;;;16.21;56.95;101584.22;4972505;28;1241;-68
2021/01/17 09:36:54;;;;;;;;;;;;;;;16.19;56.77;101586.91;4972177;28;862;-69
2021/01/17 09:39:41;;;;;;;;;;;;;;;16.33;57.76;101586.44;4939004;28;1242;-70
2021/01/17 09:42:08;;;;;;;;;;;;;;;16.52;58.52;101584.91;4955098;28;836;-68
2021/01/17 09:44:35;;;;;;;;;;;;;;;16.58;58.31;101582.09;4954366;28;1496;-68
2021/01/17 09:47:03;;;;;;;;;;;;;;;16.40;58.73;101575.69;4959744;28;1531;-68
2021/01/17 09:49:31;;;;;;;;;;;;;;;16.36;57.73;101586.34;4954363;28;1478;-67
2021/01/17 09:51:58;;;;;;;;;;;;;;;16.49;58.37;101587.66;4952457;28;808;-64
2021/01/17 09:54:27;;;;;;;;;;;;;;;16.56;56.53;101586.56;4954508;28;1483;-66
2021/01/17 09:56:53;;;;;;;;;;;;;;;16.37;53.85;101591.56;4954393;28;822;-67
2021/01/17 09:59:22;;;;;;;;;;;;;;;16.26;55.02;101592.84;4971122;28;1902;-66
2021/01/17 10:01:50;;;;;;;;;;;;;;;16.19;55.21;101602.69;4954164;28;1194;-68
2021/01/17 10:04:25;;;;;;;;;;;;;;;16.18;56.55;101605.34;4971495;28;1547;-65
2021/01/17 10:06:52;;;;;;;;;;;;;;;16.16;57.00;101596.66;4953826;28;1351;-67
2021/01/17 10:09:18;;;;;;;;;;;;;;;16.19;57.11;101591.31;4971280;28;1312;-69
2021/01/17 10:11:45;;;;;;;;;;;;;;;16.19;57.89;101589.53;4953402;28;1337;-68
2021/01/17 10:14:12;;;;;;;;;;;;;;;16.19;58.27;101586.06;4971343;28;1317;-67
2021/01/17 10:16:39;;;;;;;;;;;;;;;16.18;58.25;101589.56;4970713;28;846;-67
2021/01/17 10:19:06;;;;;;;;;;;;;;;16.14;58.61;101593.25;4953614;28;1914;-68
2021/01/17 10:21:37;;;;;;;;;;;;;;;16.13;58.90;101579.22;4971289;28;814;-69
2021/01/17 10:24:03;;;;;;;;;;;;;;;16.12;59.11;101593.28;4970496;28;1323;-68
2021/01/17 10:26:32;;;;;;;;;;;;;;;16.08;59.64;101590.81;4970926;28;767;-67
2021/01/17 10:29:03;;;;;;;;;;;;;;;16.04;59.89;101582.16;4953574;28;1316;-67
2021/01/17 10:31:33;;;;;;;;;;;;;;;16.01;59.75;101577.00;4970979;28;787;-67
2021/01/17 10:33:59;;;;;;;;;;;;;;;16.02;60.35;101575.25;4971131;28;1193;-68
2021/01/17 10:36:26;;;;;;;;;;;;;;;16.00;60.71;101574.41;4970553;28;1008;-68
2021/01/17 10:38:53;;;;;;;;;;;;;;;15.97;60.67;101564.00;4953493;28;1899;-68
2021/01/17 10:41:24;;;;;;;;;;;;;;;15.95;60.67;101566.69;4970524;28;875;-66
2021/01/17 10:43:56;;;;;;;;;;;;;;;15.94;60.67;101543.94;4951625;28;1701;-68
2021/01/17 10:46:25;;;;;;;;;;;;;;;15.94;60.75;101545.69;4952789;28;1218;-69
2021/01/17 10:48:58;;;;;;;;;;;;;;;15.93;61.26;101544.00;4970504;28;1320;-68
2021/01/17 10:51:44;;;;;;;;;;;;;;;15.89;61.02;101540.63;4970977;28;795;-66
2021/01/17 10:54:15;;;;;;;;;;;;;;;15.89;61.42;101552.88;4960467;28;1340;-67
2021/01/17 10:56:43;;;;;;;;;;;;;;;15.86;61.34;101551.22;4970665;28;826;-69
2021/01/17 10:59:12;;;;;;;;;;;;;;;15.85;61.37;101545.09;4970672;28;1947;-66
2021/01/17 11:01:44;;;;;;;;;;;;;;;15.85;61.63;101545.09;4968980;28;1073;-67
2021/01/17 11:04:11;;;;;;;;;;;;;;;15.81;61.38;101527.72;4970797;28;1186;-66
2021/01/17 11:06:37;;;;;;;;;;;;;;;15.81;61.01;101522.47;4969311;28;877;-67
2021/01/17 11:09:11;;;;;;;;;;;;;;;15.81;61.19;101517.19;4970253;28;1340;-66
2021/01/17 11:11:43;;;;;;;;;;;;;;;15.80;61.00;101510.25;4970196;28;791;-66
2021/01/17 11:14:09;;;;;;;;;;;;;;;15.79;61.33;101502.41;4952919;28;1229;-67
2021/01/17 11:16:39;;;;;;;;;;;;;;;15.79;60.91;101503.28;4952828;28;1215;-66
2021/01/17 11:19:06;;;;;;;;;;;;;;;15.80;61.35;101504.13;4970294;28;1964;-67
2021/01/17 11:21:33;;;;;;;;;;;;;;;15.77;61.15;101498.97;4969878;28;1069;-67
2021/01/17 11:23:59;;;;;;;;;;;;;;;15.77;61.29;101491.97;4970129;28;1327;-67
2021/01/17 11:26:26;;;;;;;;;;;;;;;15.75;61.02;101496.38;4969834;28;803;-66
2021/01/17 11:29:00;;;;;;;;;;;;;;;15.73;61.26;101486.84;4970169;28;1161;-67
2021/01/17 11:31:27;;;;;;;;;;;;;;;15.73;61.34;101485.09;4969816;28;736;-67
2021/01/17 11:33:54;;;;;;;;;;;;;;;15.72;61.08;101483.34;4952089;28;1254;-67
2021/01/17 11:36:28;;;;;;;;;;;;;;;15.71;60.86;101471.16;4969945;28;858;-68
2021/01/17 11:38:56;;;;;;;;;;;;;;;15.71;60.99;101468.53;4970072;28;1914;-66
2021/01/17 11:41:23;;;;;;;;;;;;;;;15.68;61.14;101460.75;4952085;28;1191;-68
2021/01/17 11:43:50;;;;;;;;;;;;;;;15.70;61.24;101455.44;4970067;28;1382;-67
2021/01/17 11:46:16;;;;;;;;;;;;;;;15.68;61.29;101446.75;4970026;28;1017;-67
2021/01/17 11:48:43;;;;;;;;;;;;;;;15.67;61.09;101448.50;4969821;28;1189;-68
2021/01/17 11:51:11;;;;;;;;;;;;;;;15.66;60.72;101428.41;4969674;28;1028;-68
2021/01/17 11:53:38;;;;;;;;;;;;;;;15.66;60.75;101431.03;4969623;28;1226;-66
2021/01/17 11:56:05;;;;;;;;;;;;;;;15.65;60.57;101434.59;4970276;28;913;-67
2021/01/17 11:58:38;;;;;;;;;;;;;;;15.63;60.75;101423.25;4955575;28;1939;-67
2021/01/17 12:01:06;;;;;;;;;;;;;;;15.64;60.61;101427.59;4973640;28;771;-67
2021/01/17 12:03:35;;;;;;;;;;;;;;;15.63;60.48;101418.00;4973658;28;1223;-68
2021/01/17 12:06:05;;;;;;;;;;;;;;;15.63;60.67;101410.13;4955905;28;941;-68
2021/01/17 12:09:03;;;;;;;;;;;;;;;15.61;61.03;101403.22;4972160;28;1222;-68
2021/01/17 12:11:33;;;;;;;;;;;;;;;15.63;61.08;101407.50;4931037;28;1155;-69
2021/01/17 12:14:02;;;;;;;;;;;;;;;15.63;60.83;101404.00;4973482;28;1218;-69
2021/01/17 12:16:29;;;;;;;;;;;;;;;15.59;60.91;101400.66;4973358;28;768;-67
2021/01/17 12:18:56;;;;;;;;;;;;;;;15.58;61.19;101393.66;4973313;28;1977;-68
2021/01/17 12:21:23;;;;;;;;;;;;;;;15.60;60.84;101389.22;4973134;28;1131;-68
2021/01/17 12:23:50;;;;;;;;;;;;;;;15.58;60.57;101393.66;4973098;28;1194;-67
2021/01/17 12:26:17;;;;;;;;;;;;;;;15.58;60.71;101385.78;4955949;28;779;-68
2021/01/17 12:28:43;;;;;;;;;;;;;;;15.58;60.71;101387.56;4973114;28;1319;-68
2021/01/17 12:31:16;;;;;;;;;;;;;;;15.58;60.53;101398.91;4955548;28;1202;-67
2021/01/17 12:33:43;;;;;;;;;;;;;;;15.56;60.28;101382.38;4939403;28;1304;-68
2021/01/17 12:36:10;;;;;;;;;;;;;;;15.57;60.64;101375.31;4955585;28;1325;-67
2021/01/17 12:38:37;;;;;;;;;;;;;;;15.56;60.91;101384.13;4955271;28;1906;-67
2021/01/17 12:41:14;;;;;;;;;;;;;;;15.57;60.60;101381.44;4972967;28;760;-68
2021/01/17 12:43:41;;;;;;;;;;;;;;;15.55;60.85;101375.38;4955028;28;1403;-67
2021/01/17 12:46:08;;;;;;;;;;;;;;;15.53;60.89;101366.72;4972725;28;823;-67
2021/01/17 12:48:35;;;;;;;;;;;;;;;15.55;60.91;101366.66;4954985;28;1355;-67
2021/01/17 12:51:01;;;;;;;;;;;;;;;15.54;60.88;101371.03;4972689;28;874;-68
2021/01/17 12:53:28;;;;;;;;;;;;;;;15.54;60.81;101365.78;4972294;28;1328;-67
2021/01/17 12:55:55;;;;;;;;;;;;;;;15.52;60.47;101372.00;4954832;28;1317;-68
2021/01/17 12:58:21;;;;;;;;;;;;;;;15.52;60.35;101372.88;4971992;28;1981;-69
2021/01/17 13:00:47;;;;;;;;;;;;;;;15.51;60.68;101376.38;4955330;28;787;-69
2021/01/17 13:03:14;;;;;;;;;;;;;;;15.52;60.26;101372.88;4939096;28;1250;-68
2021/01/17 13:05:40;;;;;;;;;;;;;;;15.52;60.74;101377.25;4972326;28;1001;-68
2021/01/17 13:08:07;;;;;;;;;;;;;;;15.51;60.81;101363.25;4954682;28;1202;-67
2021/01/17 13:10:33;;;;;;;;;;;;;;;15.50;61.05;101368.56;4972357;28;803;-68
2021/01/17 13:13:00;;;;;;;;;;;;;;;15.49;61.02;101370.34;4972033;28;1233;-68
2021/01/17 13:15:28;;;;;;;;;;;;;;;15.49;60.70;101357.22;4954440;28;1322;-69
2021/01/17 13:17:55;;;;;;;;;;;;;;;15.49;60.84;101359.84;4971660;28;1950;-68
2021/01/17 13:20:22;;;;;;;;;;;;;;;15.49;60.73;101354.59;4971930;28;851;-68
2021/01/17 13:22:49;;;;;;;;;;;;;;;15.49;60.85;101358.97;4971219;28;1315;-68
2021/01/17 13:25:18;;;;;;;;;;;;;;;15.50;60.86;101352.81;4971715;28;779;-68
2021/01/17 13:27:45;;;;;;;;;;;;;;;15.47;60.96;101345.88;4970394;28;1308;-68
2021/01/17 13:30:12;;;;;;;;;;;;;;;15.48;60.65;101350.22;4972474;28;795;-66
2021/01/17 13:32:38;;;;;;;;;;;;;;;15.49;60.47;101348.47;4972101;28;1164;-69
2021/01/17 13:35:05;;;;;;;;;;;;;;;15.47;60.86;101347.66;4971929;28;1086;-68
2021/01/17 13:37:32;;;;;;;;;;;;;;;15.46;61.06;101356.41;4971536;28;1907;-68
2021/01/17 13:39:59;;;;;;;;;;;;;;;15.47;60.94;101340.63;4938710;28;1278;-67
2021/01/17 13:42:29;;;;;;;;;;;;;;;15.44;60.85;101340.69;4954296;28;1254;-68
2021/01/17 13:44:56;;;;;;;;;;;;;;;15.45;60.98;101341.56;4972367;28;1565;-68
2021/01/17 13:47:26;;;;;;;;;;;;;;;15.43;61.05;101331.13;4972059;28;1377;-67
2021/01/17 13:49:54;;;;;;;;;;;;;;;15.43;61.24;101346.03;4972353;28;1280;-68
2021/01/17 13:52:20;;;;;;;;;;;;;;;15.43;61.11;101340.78;4971724;28;1320;-68
2021/01/17 13:54:46;;;;;;;;;;;;;;;15.43;61.13;101341.63;4953947;28;1309;-68